createdAt,value
2019-04-14T00:00:57.580Z,16.30
2019-04-14T00:03:35.178Z,18.40
2019-04-14T00:06:07.132Z,15.73
2019-04-14T00:08:39.557Z,14.57
2019-04-14T00:11:10.413Z,15.23
2019-04-14T00:13:41.287Z,12.63
2019-04-14T00:16:12.652Z,13.77
2019-04-14T00:18:42.988Z,14.27
2019-04-14T00:21:13.343Z,17.90
2019-04-14T00:23:47.806Z,15.07
2019-04-14T00:26:31.365Z,14.03
2019-04-14T00:29:02.817Z,15.47
2019-04-14T00:31:33.424Z,15.03
2019-04-14T00:34:07.335Z,14.53
2019-04-14T00:36:50.970Z,12.90
2019-04-14T00:39:29.421Z,14.80
2019-04-14T00:42:32.007Z,15.33
2019-04-14T00:45:11.223Z,15.93
2019-04-14T00:47:54.769Z,13.47
2019-04-14T00:50:19.139Z,14.73
2019-04-14T00:52:50.144Z,13.37
2019-04-14T00:55:20.697Z,14.60
2019-04-14T00:57:50.991Z,14.37
2019-04-14T01:00:21.966Z,15.40
2019-04-14T01:02:53.631Z,12.53
2019-04-14T01:05:24.575Z,13.43
2019-04-14T01:07:55.079Z,13.13
2019-04-14T01:10:25.682Z,12.43
2019-04-14T01:12:56.402Z,15.97
2019-04-14T01:15:26.912Z,13.63
2019-04-14T01:17:59.336Z,13.90
2019-04-14T01:20:29.714Z,13.60
2019-04-14T01:23:00.171Z,15.23
2019-04-14T01:25:30.481Z,14.73
2019-04-14T01:28:02.396Z,14.00
2019-04-14T01:30:33.026Z,15.03
2019-04-14T01:33:03.343Z,13.00
2019-04-14T01:35:33.975Z,11.83
2019-04-14T01:38:05.896Z,12.77
2019-04-14T01:40:36.398Z,13.57
2019-04-14T01:43:07.993Z,12.13
2019-04-14T01:45:40.290Z,13.27
2019-04-14T01:48:10.831Z,11.13
2019-04-14T01:50:56.198Z,13.40
2019-04-14T01:53:40.160Z,12.27
2019-04-14T01:56:32.365Z,15.23
2019-04-14T01:59:05.034Z,13.97
2019-04-14T02:01:36.748Z,12.57
2019-04-14T02:04:07.376Z,14.60
2019-04-14T02:06:37.937Z,11.97
2019-04-14T02:09:11.901Z,12.63
2019-04-14T02:11:45.013Z,13.53
2019-04-14T02:14:16.874Z,10.57
2019-04-14T02:16:52.583Z,12.93
2019-04-14T02:19:19.864Z,10.27
2019-04-14T02:21:51.904Z,12.67
2019-04-14T02:24:22.560Z,12.87
2019-04-14T02:26:53.052Z,12.30
2019-04-14T02:29:23.379Z,12.93
2019-04-14T02:32:33.843Z,12.80
2019-04-14T02:34:57.479Z,11.40
2019-04-14T02:40:04.110Z,12.77
2019-04-14T02:42:36.801Z,12.93
2019-04-14T02:44:59.927Z,11.40
2019-04-14T02:50:05.231Z,12.13
2019-04-14T02:52:35.453Z,10.63
2019-04-14T02:55:02.902Z,13.40
2019-04-14T02:57:38.260Z,11.87
2019-04-14T03:00:21.668Z,13.50
2019-04-14T03:03:01.222Z,14.33
2019-04-14T03:07:54.222Z,10.10
2019-04-14T03:13:01.820Z,13.33
2019-04-14T03:15:26.685Z,13.87
2019-04-14T03:27:06.340Z,10.70
2019-04-14T03:29:39.251Z,11.10
2019-04-14T03:37:39.603Z,10.90
2019-04-14T03:39:45.969Z,9.03
2019-04-14T03:42:19.878Z,11.97
2019-04-14T03:44:49.524Z,11.07
2019-04-14T03:47:22.080Z,11.67
2019-04-14T03:49:52.591Z,13.70
2019-04-14T03:52:35.488Z,11.53
2019-04-14T03:54:52.838Z,10.93
2019-04-14T03:57:03.976Z,12.37
2019-04-14T03:59:34.623Z,12.93
2019-04-14T04:02:05.362Z,10.17
2019-04-14T04:04:35.927Z,10.43
2019-04-14T04:07:06.326Z,12.43
2019-04-14T04:09:45.469Z,11.37
2019-04-14T04:12:16.037Z,10.83
2019-04-14T04:14:46.611Z,14.03
2019-04-14T04:17:48.024Z,11.40
2019-04-14T04:20:36.993Z,14.07
2019-04-14T04:23:18.419Z,11.80
2019-04-14T04:25:55.110Z,9.37
2019-04-14T04:28:38.981Z,12.83
2019-04-14T04:31:39.504Z,11.97
2019-04-14T04:34:16.264Z,10.33
2019-04-14T04:36:57.501Z,13.97
2019-04-14T04:39:35.259Z,13.13
2019-04-14T04:42:09.135Z,10.40
2019-04-14T04:44:40.181Z,12.00
2019-04-14T04:47:12.233Z,11.10
2019-04-14T04:49:43.175Z,13.10
2019-04-14T04:52:15.811Z,13.53
2019-04-14T04:54:47.412Z,13.97
2019-04-14T04:57:18.376Z,9.63
2019-04-14T04:59:49.978Z,14.00
2019-04-14T05:02:21.980Z,12.50
2019-04-14T05:04:53.110Z,11.73
2019-04-14T05:07:25.240Z,12.93
2019-04-14T05:10:17.359Z,13.23
2019-04-14T05:13:11.782Z,15.00
2019-04-14T05:15:49.141Z,14.60
2019-04-14T05:18:22.265Z,13.13
2019-04-14T05:20:55.221Z,15.57
2019-04-14T05:23:27.816Z,13.00
2019-04-14T05:26:00.453Z,13.13
2019-04-14T05:28:31.673Z,15.47
2019-04-14T05:31:07.485Z,15.30
2019-04-14T05:33:40.364Z,16.87
2019-04-14T05:36:12.863Z,13.27
2019-04-14T05:38:44.922Z,12.27
2019-04-14T05:41:16.171Z,17.87
2019-04-14T05:43:52.067Z,13.80
2019-04-14T05:46:20.893Z,15.97
2019-04-14T05:48:51.725Z,13.03
2019-04-14T05:51:24.528Z,15.90
2019-04-14T05:53:58.967Z,15.43
2019-04-14T05:56:30.108Z,21.23
2019-04-14T05:59:02.230Z,13.07
2019-04-14T06:01:33.820Z,15.70
2019-04-14T06:04:07.111Z,12.93
2019-04-14T06:06:41.597Z,16.23
2019-04-14T06:09:15.608Z,14.10
2019-04-14T06:11:46.610Z,15.60
2019-04-14T06:14:17.796Z,16.97
2019-04-14T06:16:50.784Z,14.63
2019-04-14T06:19:21.759Z,14.77
2019-04-14T06:21:53.326Z,15.77
2019-04-14T06:24:24.282Z,15.87
2019-04-14T06:26:59.298Z,15.30
2019-04-14T06:29:30.798Z,16.67
2019-04-14T06:32:38.596Z,14.27
2019-04-14T06:35:32.738Z,14.43
2019-04-14T06:38:06.040Z,17.03
2019-04-14T06:40:47.877Z,17.27
2019-04-14T06:43:18.901Z,14.23
2019-04-14T06:45:50.012Z,16.10
2019-04-14T06:48:21.197Z,13.97
2019-04-14T06:50:52.305Z,15.40
2019-04-14T06:53:24.911Z,16.73
2019-04-14T06:55:57.293Z,14.53
2019-04-14T06:58:28.740Z,14.87
2019-04-14T07:00:59.763Z,16.03
2019-04-14T07:03:31.757Z,14.80
2019-04-14T07:06:03.437Z,14.33
2019-04-14T07:08:34.531Z,16.07
2019-04-14T07:11:06.789Z,16.23
2019-04-14T07:13:40.049Z,16.40
2019-04-14T07:16:11.035Z,14.80
2019-04-14T07:18:42.073Z,14.33
2019-04-14T07:21:13.202Z,14.70
2019-04-14T07:23:47.092Z,15.90
2019-04-14T07:26:17.172Z,15.50
2019-04-14T07:28:56.601Z,14.50
2019-04-14T07:31:40.782Z,17.07
2019-04-14T07:34:29.362Z,15.50
2019-04-14T07:37:19.061Z,16.73
2019-04-14T07:40:08.314Z,17.27
2019-04-14T07:42:55.085Z,13.83
2019-04-14T07:45:31.677Z,19.20
2019-04-14T07:48:08.420Z,15.23
2019-04-14T07:51:07.900Z,18.57
2019-04-14T07:53:54.279Z,14.57
2019-04-14T07:56:47.461Z,17.23
2019-04-14T07:59:26.154Z,13.70
2019-04-14T08:02:29.161Z,19.47
2019-04-14T08:05:13.287Z,14.97
2019-04-14T08:07:44.313Z,14.43
2019-04-14T08:10:15.543Z,16.97
2019-04-14T08:12:46.641Z,13.93
2019-04-14T08:15:20.087Z,16.70
2019-04-14T08:17:50.401Z,12.17
2019-04-14T08:20:27.629Z,14.70
2019-04-14T08:22:54.241Z,18.37
2019-04-14T08:25:29.185Z,16.10
2019-04-14T08:28:00.382Z,14.50
2019-04-14T08:30:31.465Z,16.63
2019-04-14T08:33:03.076Z,17.23
2019-04-14T08:35:34.802Z,19.13
2019-04-14T08:38:07.728Z,17.50
2019-04-14T08:40:38.630Z,16.50
2019-04-14T08:43:26.086Z,15.23
2019-04-14T08:46:05.874Z,15.30
2019-04-14T08:48:53.882Z,15.43
2019-04-14T08:51:43.242Z,16.23
2019-04-14T08:54:36.734Z,16.33
2019-04-14T08:57:18.411Z,18.80
2019-04-14T09:00:20.822Z,14.63
2019-04-14T09:03:16.346Z,16.70
2019-04-14T09:06:04.807Z,17.07
2019-04-14T09:08:57.662Z,18.10
2019-04-14T09:11:36.442Z,16.93
2019-04-14T09:14:10.547Z,17.80
2019-04-14T09:16:43.304Z,16.20
2019-04-14T09:19:14.423Z,14.73
2019-04-14T09:21:45.597Z,22.73
2019-04-14T09:24:17.504Z,15.87
2019-04-14T09:26:48.714Z,20.97
2019-04-14T09:29:19.649Z,17.10
2019-04-14T09:31:50.629Z,16.47
2019-04-14T09:34:21.690Z,14.47
2019-04-14T09:36:53.026Z,16.37
2019-04-14T09:39:25.165Z,17.40
2019-04-14T09:41:58.246Z,16.23
2019-04-14T09:44:29.249Z,17.03
2019-04-14T09:47:00.228Z,18.23
2019-04-14T09:49:34.000Z,16.17
2019-04-14T09:52:05.001Z,17.30
2019-04-14T09:54:36.244Z,16.67
2019-04-14T09:57:07.124Z,15.33
2019-04-14T09:59:38.184Z,16.23
2019-04-14T10:02:09.302Z,17.60
2019-04-14T10:04:41.294Z,16.17
2019-04-14T10:07:12.805Z,16.30
2019-04-14T10:09:43.727Z,16.50
2019-04-14T10:12:14.862Z,18.37
2019-04-14T10:14:46.136Z,16.03
2019-04-14T10:17:17.411Z,13.97
2019-04-14T10:19:48.329Z,17.03
2019-04-14T10:22:19.156Z,14.43
2019-04-14T10:24:50.276Z,13.43
2019-04-14T10:27:22.156Z,16.07
2019-04-14T10:29:53.326Z,12.63
2019-04-14T10:32:24.527Z,16.83
2019-04-14T10:34:55.560Z,13.00
2019-04-14T10:37:26.969Z,16.63
2019-04-14T10:39:58.099Z,18.03
2019-04-14T10:42:29.263Z,14.33
2019-04-14T10:45:00.253Z,13.83
2019-04-14T10:47:31.161Z,12.23
2019-04-14T10:50:02.516Z,13.00
2019-04-14T10:52:33.409Z,15.27
2019-04-14T10:55:04.194Z,15.83
2019-04-14T10:57:35.514Z,14.83
2019-04-14T11:00:08.322Z,15.20
2019-04-14T11:02:39.165Z,15.30
2019-04-14T11:05:10.739Z,13.47
2019-04-14T11:07:41.769Z,17.30
2019-04-14T11:10:13.000Z,15.40
2019-04-14T11:12:44.227Z,16.43
2019-04-14T11:15:15.586Z,12.80
2019-04-14T11:17:46.503Z,13.53
2019-04-14T11:20:17.097Z,14.27
2019-04-14T11:22:48.364Z,13.90
2019-04-14T11:25:19.329Z,14.07
2019-04-14T11:27:51.364Z,14.23
2019-04-14T11:30:23.418Z,13.27
2019-04-14T11:33:00.755Z,14.53
2019-04-14T11:35:53.188Z,15.63
2019-04-14T11:38:31.657Z,19.90
2019-04-14T11:41:06.393Z,14.93
2019-04-14T11:43:37.439Z,12.90
2019-04-14T11:46:08.564Z,13.97
2019-04-14T11:48:39.916Z,13.80
2019-04-14T11:51:10.969Z,16.10
2019-04-14T11:53:41.800Z,15.10
2019-04-14T11:56:12.965Z,15.67
2019-04-14T11:58:46.055Z,16.13
2019-04-14T12:01:35.842Z,16.53
2019-04-14T12:04:19.321Z,15.00
2019-04-14T12:06:58.482Z,18.40
2019-04-14T12:09:35.209Z,14.73
2019-04-14T12:12:09.191Z,15.60
2019-04-14T12:14:40.005Z,14.40
2019-04-14T12:17:10.893Z,15.20
2019-04-14T12:19:41.869Z,15.30
2019-04-14T12:22:12.774Z,14.63
2019-04-14T12:24:44.038Z,18.80
2019-04-14T12:27:15.670Z,14.93
2019-04-14T12:29:47.848Z,15.13
2019-04-14T12:32:19.275Z,13.40
2019-04-14T12:34:50.073Z,12.47
2019-04-14T12:37:20.776Z,11.53
2019-04-14T12:39:54.194Z,13.37
2019-04-14T12:42:37.178Z,11.40
2019-04-14T12:45:27.199Z,9.93
2019-04-14T12:48:15.164Z,10.90
2019-04-14T12:50:55.793Z,12.43
2019-04-14T12:53:28.118Z,11.30
2019-04-14T12:55:59.748Z,11.80
2019-04-14T12:59:08.275Z,11.83
2019-04-14T13:01:44.691Z,11.50
2019-04-14T13:04:15.589Z,13.37
2019-04-14T13:06:46.698Z,14.70
2019-04-14T13:09:18.132Z,10.73
2019-04-14T13:11:49.207Z,10.33
2019-04-14T13:14:20.675Z,12.37
2019-04-14T13:16:52.948Z,9.87
2019-04-14T13:19:24.202Z,9.23
2019-04-14T13:21:54.905Z,9.03
2019-04-14T13:24:25.801Z,10.13
2019-04-14T13:26:59.305Z,10.57
2019-04-14T13:29:30.225Z,10.87
2019-04-14T13:32:00.977Z,11.27
2019-04-14T13:34:32.325Z,9.83
2019-04-14T13:37:03.186Z,7.83
2019-04-14T13:39:33.704Z,8.30
2019-04-14T13:42:04.324Z,7.10
2019-04-14T13:44:35.233Z,9.87
2019-04-14T13:47:08.875Z,9.47
2019-04-14T13:49:41.140Z,8.77
2019-04-14T13:52:11.968Z,9.23
2019-04-14T13:54:42.566Z,8.93
2019-04-14T13:57:13.388Z,8.47
2019-04-14T13:59:44.299Z,8.50
2019-04-14T14:02:15.567Z,9.47
2019-04-14T14:04:46.360Z,9.70
2019-04-14T14:07:17.246Z,8.27
2019-04-14T14:09:48.028Z,12.00
2019-04-14T14:12:26.700Z,10.63
2019-04-14T14:15:09.533Z,10.27
2019-04-14T14:17:54.093Z,12.30
2019-04-14T14:20:46.664Z,9.57
2019-04-14T14:23:27.781Z,10.67
2019-04-14T14:26:01.891Z,12.67
2019-04-14T14:28:34.981Z,11.73
2019-04-14T14:31:09.015Z,12.63
2019-04-14T14:33:40.195Z,12.03
2019-04-14T14:36:11.269Z,13.30
2019-04-14T14:38:44.396Z,11.77
2019-04-14T14:41:17.627Z,10.80
2019-04-14T14:43:49.519Z,12.47
2019-04-14T14:46:38.517Z,12.33
2019-04-14T14:49:16.777Z,11.73
2019-04-14T14:51:52.875Z,14.23
2019-04-14T14:54:24.391Z,12.33
2019-04-14T14:56:55.471Z,13.63
2019-04-14T14:59:26.775Z,11.80
2019-04-14T15:01:58.423Z,12.60
2019-04-14T15:04:29.528Z,13.30
2019-04-14T15:07:00.952Z,12.77
2019-04-14T15:09:32.773Z,14.37
2019-04-14T15:12:04.174Z,14.10
2019-04-14T15:14:35.111Z,14.67
2019-04-14T15:17:08.360Z,16.47
2019-04-14T15:19:38.944Z,16.13
2019-04-14T15:22:10.048Z,16.37
2019-04-14T15:24:41.152Z,14.10
2019-04-14T15:27:12.396Z,16.00
2019-04-14T15:29:43.311Z,16.57
2019-04-14T15:32:14.402Z,18.57
2019-04-14T15:34:45.285Z,17.90
2019-04-14T15:37:18.840Z,15.57
2019-04-14T15:39:49.650Z,17.00
2019-04-14T15:42:20.671Z,15.90
2019-04-14T15:44:51.599Z,17.70
2019-04-14T15:47:22.199Z,19.13
2019-04-14T15:49:52.921Z,18.53
2019-04-14T15:52:29.892Z,17.77
2019-04-14T15:55:00.739Z,20.53
2019-04-14T15:57:58.838Z,20.83
2019-04-14T16:00:51.043Z,18.83
2019-04-14T16:03:36.583Z,23.67
2019-04-14T16:06:26.226Z,18.23
2019-04-14T16:09:01.877Z,20.73
2019-04-14T16:11:54.450Z,20.53
2019-04-14T16:14:43.644Z,20.83
2019-04-14T16:17:32.907Z,20.90
2019-04-14T16:20:13.927Z,20.30
2019-04-14T16:22:45.172Z,20.10
2019-04-14T16:25:17.152Z,22.10
2019-04-14T16:27:59.141Z,17.87
2019-04-14T16:31:03.938Z,23.40
2019-04-14T16:33:53.855Z,24.57
2019-04-14T16:36:25.309Z,24.03
2019-04-14T16:38:56.216Z,24.03
2019-04-14T16:41:27.652Z,20.13
2019-04-14T16:43:58.524Z,19.83
2019-04-14T16:46:29.608Z,22.37
2019-04-14T16:49:00.784Z,24.60
2019-04-14T16:51:41.013Z,24.83
2019-04-14T16:54:25.898Z,20.43
2019-04-14T16:57:14.361Z,21.53
2019-04-14T16:59:45.373Z,24.33
2019-04-14T17:02:16.480Z,21.70
2019-04-14T17:04:47.228Z,22.13
2019-04-14T17:07:18.260Z,21.67
2019-04-14T17:09:49.471Z,20.43
2019-04-14T17:12:26.167Z,21.40
2019-04-14T17:15:11.111Z,19.13
2019-04-14T17:17:59.481Z,22.47
2019-04-14T17:21:04.759Z,19.97
2019-04-14T17:23:42.724Z,19.87
2019-04-14T17:26:20.807Z,21.90
2019-04-14T17:28:59.061Z,20.93
2019-04-14T17:31:39.469Z,23.13
2019-04-14T17:34:33.129Z,22.50
2019-04-14T17:37:23.236Z,20.07
2019-04-14T17:40:07.486Z,19.03
2019-04-14T17:42:44.375Z,22.33
2019-04-14T17:45:21.164Z,20.20
2019-04-14T17:48:10.968Z,22.60
2019-04-14T17:50:49.418Z,22.87
2019-04-14T17:53:43.120Z,22.27
2019-04-14T17:56:23.411Z,18.43
2019-04-14T17:59:11.211Z,21.40
2019-04-14T18:02:09.476Z,20.07
2019-04-14T18:04:54.339Z,21.77
2019-04-14T18:07:34.046Z,20.20
2019-04-14T18:10:27.684Z,21.60
2019-04-14T18:13:20.940Z,25.07
2019-04-14T18:16:04.987Z,19.03
2019-04-14T18:19:03.941Z,18.20
2019-04-14T18:21:35.653Z,19.80
2019-04-14T18:24:11.653Z,21.50
2019-04-14T18:26:42.275Z,19.17
2019-04-14T18:29:28.151Z,20.80
2019-04-14T18:32:06.655Z,18.37
2019-04-14T18:34:56.371Z,20.17
2019-04-14T18:37:44.161Z,22.07
2019-04-14T18:40:28.173Z,20.33
2019-04-14T18:43:13.397Z,19.57
2019-04-14T18:45:49.174Z,18.20
2019-04-14T18:48:41.532Z,18.33
2019-04-14T18:51:43.032Z,22.87
2019-04-14T18:54:35.420Z,16.90
2019-04-14T18:57:22.680Z,31.17
2019-04-14T19:00:01.338Z,58.10
2019-04-14T19:02:32.026Z,77.37
2019-04-14T19:05:03.235Z,79.10
2019-04-14T19:07:33.856Z,101.30
2019-04-14T19:10:05.124Z,70.50
2019-04-14T19:12:57.023Z,54.83
2019-04-14T19:15:35.180Z,67.57
2019-04-14T19:18:39.764Z,86.47
2019-04-14T19:21:12.713Z,101.90
2019-04-14T19:23:46.180Z,79.77
2019-04-14T19:26:15.381Z,50.20
2019-04-14T19:28:45.829Z,38.43
2019-04-14T19:31:17.425Z,25.67
2019-04-14T19:33:47.947Z,22.20
2019-04-14T19:36:18.696Z,25.47
2019-04-14T19:38:51.982Z,20.87
2019-04-14T19:41:22.740Z,19.87
2019-04-14T19:43:53.177Z,18.63
2019-04-14T19:46:23.874Z,21.33
2019-04-14T19:48:54.616Z,21.93
2019-04-14T19:51:25.151Z,23.43
2019-04-14T19:53:55.897Z,22.57
2019-04-14T19:56:26.583Z,23.43
2019-04-14T19:58:57.379Z,22.13
2019-04-14T20:01:29.851Z,21.83
2019-04-14T20:04:00.326Z,21.97
2019-04-14T20:06:31.114Z,19.33
2019-04-14T20:09:02.841Z,20.57
2019-04-14T20:11:33.511Z,22.03
2019-04-14T20:14:04.166Z,18.17
2019-04-14T20:16:58.588Z,21.80
2019-04-14T20:19:46.934Z,21.60
2019-04-14T20:22:33.738Z,20.03
2019-04-14T20:25:33.839Z,22.53
2019-04-14T20:28:26.474Z,20.67
2019-04-14T20:31:03.107Z,21.07
2019-04-14T20:33:33.808Z,22.50
2019-04-14T20:36:05.400Z,23.57
2019-04-14T20:38:36.052Z,19.30
2019-04-14T20:41:07.011Z,19.70
2019-04-14T20:43:37.602Z,20.53
2019-04-14T20:46:08.256Z,19.43
2019-04-14T20:48:38.734Z,19.30
2019-04-14T20:51:09.594Z,20.30
2019-04-14T20:53:41.247Z,21.60
2019-04-14T20:56:11.623Z,19.77
2019-04-14T20:58:42.395Z,20.10
2019-04-14T21:01:14.917Z,18.83
2019-04-14T21:04:07.627Z,17.67
2019-04-14T21:06:56.930Z,19.37
2019-04-14T21:09:43.367Z,19.57
2019-04-14T21:12:31.936Z,20.20
2019-04-14T21:15:34.564Z,20.80
2019-04-14T21:18:12.039Z,20.70
2019-04-14T21:20:50.654Z,24.37
2019-04-14T21:23:39.963Z,23.07
2019-04-14T21:26:21.165Z,22.23
2019-04-14T21:29:10.750Z,18.87
2019-04-14T21:31:56.570Z,20.43
2019-04-14T21:34:44.773Z,20.57
2019-04-14T21:37:34.411Z,19.27
2019-04-14T21:40:30.408Z,18.27
2019-04-14T21:43:01.230Z,19.90
2019-04-14T21:45:32.661Z,19.93
2019-04-14T21:48:03.078Z,19.63
2019-04-14T21:50:33.585Z,23.00
2019-04-14T21:53:04.754Z,22.10
2019-04-14T21:55:35.682Z,19.33
2019-04-14T21:58:39.995Z,20.43
2019-04-14T22:01:51.406Z,20.27
2019-04-14T22:04:47.037Z,17.83
2019-04-14T22:07:43.693Z,20.37
2019-04-14T22:10:22.929Z,21.07
2019-04-14T22:12:53.385Z,21.37
2019-04-14T22:15:23.831Z,20.13
2019-04-14T22:17:54.454Z,23.00
2019-04-14T22:20:24.895Z,21.73
2019-04-14T22:22:55.363Z,20.73
2019-04-14T22:25:27.619Z,21.37
2019-04-14T22:27:58.118Z,20.27
2019-04-14T22:30:29.713Z,22.97
2019-04-14T22:33:00.564Z,18.67
2019-04-14T22:35:31.319Z,20.20
2019-04-14T22:38:03.027Z,17.87
2019-04-14T22:40:33.451Z,23.67
2019-04-14T22:43:04.026Z,22.10
2019-04-14T22:45:34.895Z,20.43
2019-04-14T22:48:06.613Z,19.07
2019-04-14T22:50:37.285Z,21.17
2019-04-14T22:53:08.034Z,18.83
2019-04-14T22:55:38.526Z,17.03
2019-04-14T22:58:08.983Z,17.63
2019-04-14T23:00:58.687Z,18.87
2019-04-14T23:04:06.258Z,17.13
2019-04-14T23:06:58.210Z,15.47
2019-04-14T23:09:51.840Z,16.03
2019-04-14T23:12:59.111Z,15.53
2019-04-14T23:15:50.489Z,16.70
2019-04-14T23:18:40.463Z,16.00
2019-04-14T23:21:16.638Z,15.90
2019-04-14T23:24:09.290Z,16.60
2019-04-14T23:26:51.723Z,16.57
2019-04-14T23:29:13.369Z,18.40
2019-04-14T23:31:44.009Z,19.43
2019-04-14T23:34:14.535Z,17.00
2019-04-14T23:36:46.157Z,18.10
2019-04-14T23:39:17.009Z,16.83
2019-04-14T23:41:47.986Z,16.13
2019-04-14T23:44:19.421Z,18.73
2019-04-14T23:46:50.161Z,18.83
2019-04-14T23:49:22.425Z,18.47
2019-04-14T23:51:53.503Z,13.77
2019-04-14T23:54:24.257Z,13.80
2019-04-14T23:57:04.667Z,12.57
2019-04-14T23:59:27.338Z,14.40
